createdAt,value
2023-04-27T00:01:43.453Z,12.40
2023-04-27T00:04:10.485Z,12.30
2023-04-27T00:06:37.642Z,12.30
2023-04-27T00:09:04.722Z,12.30
2023-04-27T00:11:31.847Z,12.30
2023-04-27T00:13:59.208Z,12.30
2023-04-27T00:16:26.644Z,12.30
2023-04-27T00:18:54.045Z,12.30
2023-04-27T00:21:21.289Z,12.30
2023-04-27T00:23:48.166Z,12.20
2023-04-27T00:26:15.116Z,12.20
2023-04-27T00:28:44.393Z,12.10
2023-04-27T00:31:11.378Z,12.00
2023-04-27T00:33:38.503Z,12.00
2023-04-27T00:36:05.790Z,11.90
2023-04-27T00:38:32.728Z,11.90
2023-04-27T00:41:03.854Z,11.90
2023-04-27T00:43:31.475Z,11.90
2023-04-27T00:45:59.439Z,11.80
2023-04-27T00:48:26.881Z,11.80
2023-04-27T00:50:54.406Z,11.80
2023-04-27T00:53:21.678Z,11.80
2023-04-27T00:55:49.759Z,11.70
2023-04-27T00:58:16.696Z,11.70
2023-04-27T01:00:43.883Z,11.70
2023-04-27T01:03:11.496Z,11.70
2023-04-27T01:05:39.509Z,11.70
2023-04-27T01:08:08.104Z,11.70
2023-04-27T01:10:35.514Z,11.60
2023-04-27T01:13:02.573Z,11.50
2023-04-27T01:15:31.904Z,11.50
2023-04-27T01:18:02.899Z,11.40
2023-04-27T01:20:32.684Z,11.40
2023-04-27T01:22:59.908Z,11.30
2023-04-27T01:25:27.132Z,11.30
2023-04-27T01:27:55.082Z,11.30
2023-04-27T01:30:25.093Z,11.30
2023-04-27T01:32:52.050Z,11.30
2023-04-27T01:35:19.941Z,11.30
2023-04-27T01:37:46.917Z,11.30
2023-04-27T01:40:14.244Z,11.20
2023-04-27T01:42:41.340Z,11.20
2023-04-27T01:45:09.549Z,11.20
2023-04-27T01:47:36.486Z,11.20
2023-04-27T01:50:04.075Z,11.10
2023-04-27T01:52:31.717Z,11.10
2023-04-27T01:54:58.678Z,11.00
2023-04-27T01:57:26.798Z,11.00
2023-04-27T01:59:55.512Z,11.00
2023-04-27T02:02:22.434Z,11.00
2023-04-27T02:04:49.626Z,11.00
2023-04-27T02:07:16.624Z,11.00
2023-04-27T02:09:44.081Z,11.00
2023-04-27T02:12:13.642Z,11.00
2023-04-27T02:14:40.661Z,11.00
2023-04-27T02:17:07.496Z,11.00
2023-04-27T02:19:34.750Z,11.00
2023-04-27T02:22:01.756Z,11.00
2023-04-27T02:24:28.720Z,11.00
2023-04-27T02:26:55.719Z,11.00
2023-04-27T02:29:22.656Z,11.00
2023-04-27T02:31:49.992Z,11.00
2023-04-27T02:34:17.175Z,11.00
2023-04-27T02:36:44.065Z,11.00
2023-04-27T02:39:11.231Z,11.00
2023-04-27T02:41:38.799Z,11.00
2023-04-27T02:44:05.960Z,10.90
2023-04-27T02:46:32.922Z,10.90
2023-04-27T02:49:00.157Z,10.90
2023-04-27T02:51:27.669Z,10.90
2023-04-27T02:53:54.769Z,10.80
2023-04-27T02:56:21.837Z,10.80
2023-04-27T02:58:49.032Z,10.80
2023-04-27T03:01:17.462Z,10.80
2023-04-27T03:03:48.147Z,10.80
2023-04-27T03:06:15.560Z,10.70
2023-04-27T03:08:42.563Z,10.70
2023-04-27T03:11:09.757Z,10.70
2023-04-27T03:13:41.958Z,10.70
2023-04-27T03:16:12.192Z,10.60
2023-04-27T03:18:39.988Z,10.60
2023-04-27T03:21:06.934Z,10.60
2023-04-27T03:23:34.358Z,10.60
2023-04-27T03:26:05.751Z,10.60
2023-04-27T03:28:32.745Z,10.50
2023-04-27T03:31:00.226Z,10.40
2023-04-27T03:33:28.329Z,10.30
2023-04-27T03:35:56.971Z,10.30
2023-04-27T03:38:27.573Z,10.30
2023-04-27T03:40:54.930Z,10.30
2023-04-27T03:43:22.316Z,10.20
2023-04-27T03:45:49.547Z,10.20
2023-04-27T03:48:17.361Z,10.20
2023-04-27T03:50:46.605Z,10.20
2023-04-27T03:53:14.876Z,10.20
2023-04-27T03:55:42.908Z,10.20
2023-04-27T03:58:11.170Z,10.20
2023-04-27T04:00:46.344Z,10.20
2023-04-27T04:03:14.214Z,10.20
2023-04-27T04:05:41.373Z,10.20
2023-04-27T04:08:08.405Z,10.20
2023-04-27T04:10:35.246Z,10.10
2023-04-27T04:13:02.400Z,10.10
2023-04-27T04:15:29.502Z,10.10
2023-04-27T04:17:56.647Z,10.10
2023-04-27T04:20:23.801Z,10.10
2023-04-27T04:22:50.879Z,10.10
2023-04-27T04:25:17.978Z,10.10
2023-04-27T04:27:44.991Z,10.10
2023-04-27T04:30:12.746Z,10.10
2023-04-27T04:32:40.497Z,10.10
2023-04-27T04:35:07.940Z,10.10
2023-04-27T04:37:35.634Z,10.00
2023-04-27T04:40:10.853Z,10.00
2023-04-27T04:42:39.162Z,10.00
2023-04-27T04:45:08.696Z,10.10
2023-04-27T04:47:36.680Z,10.10
2023-04-27T04:50:04.109Z,10.10
2023-04-27T04:52:31.511Z,10.10
2023-04-27T04:54:58.806Z,10.10
2023-04-27T04:57:26.803Z,10.20
2023-04-27T04:59:53.745Z,10.20
2023-04-27T05:02:20.953Z,10.20
2023-04-27T05:04:48.910Z,10.30
2023-04-27T05:07:20.906Z,10.30
2023-04-27T05:09:50.624Z,10.40
2023-04-27T05:12:17.500Z,10.40
2023-04-27T05:14:44.545Z,10.50
2023-04-27T05:17:11.445Z,10.60
2023-04-27T05:19:38.380Z,10.70
2023-04-27T05:22:05.342Z,10.80
2023-04-27T05:24:33.156Z,10.90
2023-04-27T05:27:02.179Z,10.90
2023-04-27T05:29:29.478Z,11.10
2023-04-27T05:31:56.456Z,11.20
2023-04-27T05:34:23.661Z,11.30
2023-04-27T05:36:50.519Z,11.40
2023-04-27T05:39:17.553Z,11.60
2023-04-27T05:41:44.405Z,11.80
2023-04-27T05:44:11.316Z,11.90
2023-04-27T05:46:38.843Z,12.10
2023-04-27T05:49:06.078Z,12.30
2023-04-27T05:51:33.532Z,12.50
2023-04-27T05:54:02.047Z,12.70
2023-04-27T05:56:29.155Z,12.90
2023-04-27T05:58:56.133Z,13.10
2023-04-27T06:01:23.578Z,13.20
2023-04-27T06:03:50.836Z,13.40
2023-04-27T06:06:18.212Z,13.60
2023-04-27T06:08:45.272Z,13.70
2023-04-27T06:11:12.192Z,13.90
2023-04-27T06:13:39.128Z,14.00
2023-04-27T06:16:06.388Z,14.10
2023-04-27T06:18:33.427Z,14.30
2023-04-27T06:21:01.913Z,14.40
2023-04-27T06:23:29.315Z,14.50
2023-04-27T06:25:56.417Z,14.70
2023-04-27T06:28:23.477Z,14.90
2023-04-27T06:30:50.598Z,14.90
2023-04-27T06:33:17.590Z,15.10
2023-04-27T06:35:47.247Z,15.20
2023-04-27T06:38:14.641Z,15.40
2023-04-27T06:40:41.783Z,15.50
2023-04-27T06:43:08.903Z,15.70
2023-04-27T06:45:36.237Z,15.80
2023-04-27T06:48:03.488Z,16.00
2023-04-27T06:50:30.774Z,16.20
2023-04-27T06:52:57.921Z,16.30
2023-04-27T06:55:24.966Z,16.50
2023-04-27T06:57:51.916Z,16.60
2023-04-27T07:00:19.919Z,16.80
2023-04-27T07:02:47.106Z,16.90
2023-04-27T07:05:14.265Z,17.00
2023-04-27T07:07:41.512Z,17.00
2023-04-27T07:10:09.180Z,17.10
2023-04-27T07:12:37.051Z,17.20
2023-04-27T07:15:06.549Z,17.30
2023-04-27T07:17:33.827Z,17.40
2023-04-27T07:20:06.220Z,17.60
2023-04-27T07:22:33.819Z,17.70
2023-04-27T07:25:00.735Z,17.80
2023-04-27T07:27:27.776Z,18.00
2023-04-27T07:29:54.918Z,18.10
2023-04-27T07:32:22.632Z,18.30
2023-04-27T07:34:53.953Z,18.30
2023-04-27T07:37:22.540Z,18.40
2023-04-27T07:39:53.114Z,18.50
2023-04-27T07:42:22.546Z,18.60
2023-04-27T07:44:50.396Z,18.70
2023-04-27T07:47:20.396Z,18.90
2023-04-27T07:49:48.103Z,19.10
2023-04-27T07:52:15.917Z,19.20
2023-04-27T07:54:43.243Z,19.30
2023-04-27T07:57:11.791Z,19.50
2023-04-27T07:59:39.049Z,19.70
2023-04-27T08:02:18.584Z,19.80
2023-04-27T08:04:48.213Z,20.00
2023-04-27T08:07:19.069Z,20.20
2023-04-27T08:09:46.658Z,20.30
2023-04-27T08:12:13.662Z,20.30
2023-04-27T08:14:40.804Z,20.40
2023-04-27T08:17:07.822Z,20.50
2023-04-27T08:19:34.902Z,20.60
2023-04-27T08:22:01.751Z,20.70
2023-04-27T08:24:28.805Z,20.80
2023-04-27T08:26:55.706Z,20.90
2023-04-27T08:29:27.661Z,21.00
2023-04-27T08:31:59.037Z,21.10
2023-04-27T08:34:26.797Z,21.10
2023-04-27T08:36:56.967Z,21.10
2023-04-27T08:39:25.109Z,21.10
2023-04-27T08:41:52.463Z,21.20
2023-04-27T08:44:19.557Z,21.30
2023-04-27T08:46:47.117Z,21.40
2023-04-27T08:49:16.556Z,21.50
2023-04-27T08:51:44.038Z,21.50
2023-04-27T08:54:11.115Z,21.60
2023-04-27T08:56:38.491Z,21.70
2023-04-27T08:59:17.780Z,21.90
2023-04-27T09:01:49.121Z,22.00
2023-04-27T09:04:17.726Z,22.10
2023-04-27T09:06:45.028Z,22.10
2023-04-27T09:09:22.359Z,22.00
2023-04-27T09:11:50.029Z,22.10
2023-04-27T09:14:22.386Z,22.20
2023-04-27T09:17:00.080Z,22.30
2023-04-27T09:19:28.941Z,22.50
2023-04-27T09:22:15.570Z,22.70
2023-04-27T09:24:52.870Z,22.80
2023-04-27T09:27:21.848Z,22.90
2023-04-27T09:30:13.999Z,23.00
2023-04-27T09:36:25.872Z,23.20
2023-04-27T09:38:53.625Z,23.20
2023-04-27T09:41:20.670Z,23.20
2023-04-27T09:43:47.779Z,23.30
2023-04-27T09:46:15.193Z,23.20
2023-04-27T09:48:42.870Z,23.10
2023-04-27T09:52:00.924Z,23.10
2023-04-27T09:54:32.348Z,23.00
2023-04-27T09:57:14.084Z,23.00
2023-04-27T09:59:46.773Z,23.20
2023-04-27T10:02:24.747Z,23.30
2023-04-27T10:05:30.257Z,23.20
2023-04-27T10:07:57.648Z,23.20
2023-04-27T10:10:24.574Z,23.40
2023-04-27T10:13:03.997Z,23.50
2023-04-27T10:15:31.011Z,23.30
2023-04-27T10:18:04.953Z,23.30
2023-04-27T10:20:36.606Z,23.30
2023-04-27T10:23:04.076Z,23.30
2023-04-27T10:25:40.522Z,23.30
2023-04-27T10:28:10.820Z,23.30
2023-04-27T10:30:39.283Z,23.40
2023-04-27T10:33:10.990Z,23.60
2023-04-27T10:35:40.120Z,23.80
2023-04-27T10:38:21.982Z,23.90
2023-04-27T10:41:03.332Z,23.90
2023-04-27T10:43:33.210Z,23.80
2023-04-27T10:46:15.870Z,23.70
2023-04-27T10:48:44.205Z,23.80
2023-04-27T10:51:16.084Z,23.90
2023-04-27T10:53:43.077Z,24.00
2023-04-27T10:56:11.144Z,24.00
2023-04-27T10:58:48.228Z,24.00
2023-04-27T11:01:29.874Z,24.00
2023-04-27T11:03:57.981Z,24.10
2023-04-27T11:06:25.018Z,24.00
2023-04-27T11:08:52.213Z,23.90
2023-04-27T11:11:19.916Z,24.00
2023-04-27T11:13:49.530Z,24.00
2023-04-27T11:16:16.845Z,24.00
2023-04-27T11:18:43.917Z,24.10
2023-04-27T11:21:20.340Z,24.20
2023-04-27T11:23:47.911Z,24.30
2023-04-27T11:26:20.189Z,24.30
2023-04-27T11:28:59.410Z,24.20
2023-04-27T11:31:39.795Z,24.20
2023-04-27T11:34:08.227Z,24.20
2023-04-27T11:36:36.121Z,24.20
2023-04-27T11:39:06.446Z,24.20
2023-04-27T11:41:37.555Z,24.10
2023-04-27T11:44:09.039Z,24.00
2023-04-27T11:46:38.127Z,23.90
2023-04-27T11:49:06.632Z,23.80
2023-04-27T11:51:33.994Z,23.90
2023-04-27T11:54:08.006Z,24.00
2023-04-27T11:56:43.000Z,24.00
2023-04-27T11:59:27.622Z,24.00
2023-04-27T12:01:54.700Z,24.20
2023-04-27T12:04:22.200Z,24.20
2023-04-27T12:06:49.323Z,24.30
2023-04-27T12:09:17.439Z,24.20
2023-04-27T12:11:44.698Z,24.20
2023-04-27T12:14:11.739Z,24.20
2023-04-27T12:16:38.858Z,24.20
2023-04-27T12:19:06.554Z,24.10
2023-04-27T12:21:34.071Z,24.00
2023-04-27T12:24:01.045Z,23.80
2023-04-27T12:26:29.193Z,23.80
2023-04-27T12:28:56.244Z,23.70
2023-04-27T12:31:27.709Z,23.60
2023-04-27T12:33:54.939Z,23.60
2023-04-27T12:36:21.984Z,23.50
2023-04-27T12:38:48.896Z,23.40
2023-04-27T12:41:15.931Z,23.40
2023-04-27T12:43:43.705Z,23.30
2023-04-27T12:46:11.534Z,23.40
2023-04-27T12:48:38.640Z,23.30
2023-04-27T12:51:06.917Z,23.40
2023-04-27T12:53:33.814Z,23.50
2023-04-27T12:56:02.493Z,23.50
2023-04-27T12:58:29.462Z,23.40
2023-04-27T13:01:00.330Z,23.40
2023-04-27T13:03:27.374Z,23.50
2023-04-27T13:05:54.381Z,23.50
2023-04-27T13:08:21.427Z,23.60
2023-04-27T13:10:48.361Z,23.70
2023-04-27T13:13:15.631Z,23.80
2023-04-27T13:15:42.558Z,23.80
2023-04-27T13:18:10.442Z,23.80
2023-04-27T13:20:37.987Z,23.60
2023-04-27T13:23:05.920Z,23.50
2023-04-27T13:25:32.802Z,23.50
2023-04-27T13:27:59.738Z,23.60
2023-04-27T13:30:26.672Z,23.70
2023-04-27T13:32:53.866Z,23.80
2023-04-27T13:35:21.052Z,23.80
2023-04-27T13:37:48.702Z,23.80
2023-04-27T13:40:15.737Z,23.80
2023-04-27T13:42:42.707Z,23.80
2023-04-27T13:45:10.369Z,23.80
2023-04-27T13:47:37.521Z,23.90
2023-04-27T13:50:09.208Z,23.80
2023-04-27T13:52:37.792Z,23.70
2023-04-27T13:55:06.694Z,23.60
2023-04-27T13:57:33.867Z,23.50
2023-04-27T14:00:01.185Z,23.30
2023-04-27T14:02:29.366Z,23.30
2023-04-27T14:04:56.852Z,23.40
2023-04-27T14:07:24.244Z,23.50
2023-04-27T14:09:51.140Z,23.60
2023-04-27T14:12:18.120Z,23.60
2023-04-27T14:14:44.960Z,23.60
2023-04-27T14:17:11.969Z,23.60
2023-04-27T14:19:38.839Z,23.60
2023-04-27T14:22:06.435Z,23.60
2023-04-27T14:24:33.303Z,23.60
2023-04-27T14:27:00.335Z,23.60
2023-04-27T14:29:27.218Z,23.60
2023-04-27T14:31:54.921Z,23.60
2023-04-27T14:34:21.957Z,23.50
2023-04-27T14:36:48.928Z,23.50
2023-04-27T14:39:16.026Z,23.50
2023-04-27T14:41:43.167Z,23.40
2023-04-27T14:44:10.135Z,23.40
2023-04-27T14:46:37.257Z,23.30
2023-04-27T14:49:04.570Z,23.30
2023-04-27T14:51:32.528Z,23.20
2023-04-27T14:53:59.498Z,23.20
2023-04-27T14:56:26.516Z,23.20
2023-04-27T14:58:55.143Z,23.20
2023-04-27T15:01:22.499Z,23.20
2023-04-27T15:03:51.165Z,23.10
2023-04-27T15:06:18.442Z,23.10
2023-04-27T15:08:45.751Z,23.00
2023-04-27T15:11:12.707Z,22.80
2023-04-27T15:13:39.625Z,22.70
2023-04-27T15:16:07.291Z,22.60
2023-04-27T15:18:35.377Z,22.50
2023-04-27T15:21:02.310Z,22.40
2023-04-27T15:23:29.250Z,22.40
2023-04-27T15:25:58.140Z,22.30
2023-04-27T15:28:25.194Z,22.20
2023-04-27T15:30:52.275Z,22.10
2023-04-27T15:33:19.691Z,22.00
2023-04-27T15:35:46.657Z,22.00
2023-04-27T15:38:14.692Z,21.90
2023-04-27T15:40:41.737Z,21.90
2023-04-27T15:43:08.627Z,21.80
2023-04-27T15:45:35.848Z,21.80
2023-04-27T15:48:02.835Z,21.80
2023-04-27T15:50:29.854Z,21.70
2023-04-27T15:52:56.771Z,21.70
2023-04-27T15:55:23.888Z,21.70
2023-04-27T15:57:50.761Z,21.60
2023-04-27T16:00:19.036Z,21.60
2023-04-27T16:02:46.785Z,21.60
2023-04-27T16:05:14.628Z,21.50
2023-04-27T16:07:43.243Z,21.40
2023-04-27T16:10:11.516Z,21.40
2023-04-27T16:12:39.014Z,21.30
2023-04-27T16:15:08.570Z,21.20
2023-04-27T16:17:37.483Z,21.20
2023-04-27T16:20:08.049Z,21.10
2023-04-27T16:22:36.120Z,21.10
2023-04-27T16:25:04.070Z,21.00
2023-04-27T16:27:31.669Z,21.00
2023-04-27T16:29:58.616Z,20.90
2023-04-27T16:32:26.794Z,20.90
2023-04-27T16:34:53.949Z,20.90
2023-04-27T16:37:21.048Z,20.80
2023-04-27T16:39:48.272Z,20.80
2023-04-27T16:42:19.999Z,20.80
2023-04-27T16:44:47.433Z,20.70
2023-04-27T16:47:14.637Z,20.70
2023-04-27T16:49:43.757Z,20.60
2023-04-27T16:52:11.322Z,20.50
2023-04-27T16:54:38.271Z,20.30
2023-04-27T16:57:05.192Z,20.30
2023-04-27T16:59:32.520Z,20.20
2023-04-27T17:02:06.294Z,20.10
2023-04-27T17:04:43.855Z,20.10
2023-04-27T17:07:11.365Z,20.00
2023-04-27T17:09:38.574Z,19.90
2023-04-27T17:12:11.145Z,19.90
2023-04-27T17:14:39.304Z,19.90
2023-04-27T17:17:06.668Z,19.70
2023-04-27T17:19:33.580Z,19.70
2023-04-27T17:22:00.770Z,19.60
2023-04-27T17:24:28.134Z,19.50
2023-04-27T17:26:55.074Z,19.50
2023-04-27T17:29:22.096Z,19.40
2023-04-27T17:31:50.465Z,19.30
2023-04-27T17:34:17.818Z,19.30
2023-04-27T17:36:45.685Z,19.20
2023-04-27T17:39:13.760Z,19.10
2023-04-27T17:41:41.790Z,19.00
2023-04-27T17:44:08.904Z,18.90
2023-04-27T17:46:37.912Z,18.90
2023-04-27T17:49:04.867Z,18.80
2023-04-27T17:51:33.450Z,18.70
2023-04-27T17:54:00.494Z,18.60
2023-04-27T17:56:27.385Z,18.60
2023-04-27T17:58:54.326Z,18.50
2023-04-27T18:01:21.280Z,18.40
2023-04-27T18:03:49.869Z,18.30
2023-04-27T18:06:19.314Z,18.20
2023-04-27T18:08:46.213Z,18.20
2023-04-27T18:11:13.388Z,18.10
2023-04-27T18:13:41.032Z,18.00
2023-04-27T18:16:08.046Z,17.90
2023-04-27T18:18:35.157Z,17.90
2023-04-27T18:21:02.120Z,17.80
2023-04-27T18:23:29.078Z,17.70
2023-04-27T18:26:00.026Z,17.70
2023-04-27T18:28:27.262Z,17.60
2023-04-27T18:30:54.170Z,17.60
2023-04-27T18:33:21.332Z,17.50
2023-04-27T18:35:48.528Z,17.40
2023-04-27T18:38:15.584Z,17.40
2023-04-27T18:40:42.528Z,17.30
2023-04-27T18:43:09.808Z,17.30
2023-04-27T18:45:36.880Z,17.20
2023-04-27T18:48:04.008Z,17.20
2023-04-27T18:50:31.050Z,17.10
2023-04-27T18:52:59.488Z,17.00
2023-04-27T18:55:26.739Z,16.90
2023-04-27T18:57:53.697Z,16.90
2023-04-27T19:00:20.776Z,16.80
2023-04-27T19:02:47.922Z,16.80
2023-04-27T19:05:16.036Z,16.70
2023-04-27T19:07:43.046Z,16.60
2023-04-27T19:10:11.411Z,16.50
2023-04-27T19:12:38.677Z,16.40
2023-04-27T19:15:06.039Z,16.40
2023-04-27T19:17:33.194Z,16.30
2023-04-27T19:20:00.631Z,16.20
2023-04-27T19:22:29.332Z,16.10
2023-04-27T19:24:56.382Z,16.00
2023-04-27T19:27:23.357Z,16.00
2023-04-27T19:29:55.048Z,15.80
2023-04-27T19:32:25.464Z,15.80
2023-04-27T19:34:52.849Z,15.80
2023-04-27T19:37:19.781Z,15.70
2023-04-27T19:39:47.018Z,15.70
2023-04-27T19:42:15.329Z,15.60
2023-04-27T19:44:42.255Z,15.60
2023-04-27T19:47:12.028Z,15.60
2023-04-27T19:49:39.334Z,15.50
2023-04-27T19:52:07.548Z,15.50
2023-04-27T19:54:38.822Z,15.50
2023-04-27T19:57:06.146Z,15.50
2023-04-27T19:59:33.138Z,15.50
2023-04-27T20:02:00.277Z,15.50
2023-04-27T20:04:27.512Z,15.50
2023-04-27T20:06:54.555Z,15.40
2023-04-27T20:09:21.542Z,15.40
2023-04-27T20:11:48.562Z,15.30
2023-04-27T20:14:15.681Z,15.30
2023-04-27T20:16:42.895Z,15.20
2023-04-27T20:19:10.856Z,15.20
2023-04-27T20:21:38.259Z,15.20
2023-04-27T20:24:05.463Z,15.20
2023-04-27T20:26:32.420Z,15.10
2023-04-27T20:28:59.342Z,15.10
2023-04-27T20:31:26.345Z,15.00
2023-04-27T20:33:54.421Z,14.90
2023-04-27T20:36:23.242Z,14.90
2023-04-27T20:38:50.223Z,14.80
2023-04-27T20:41:17.442Z,14.80
2023-04-27T20:43:45.580Z,14.80
2023-04-27T20:46:12.916Z,14.70
2023-04-27T20:48:39.941Z,14.70
2023-04-27T20:51:07.025Z,14.70
2023-04-27T20:53:34.005Z,14.70
2023-04-27T20:56:00.934Z,14.70
2023-04-27T20:58:27.869Z,14.60
2023-04-27T21:00:54.878Z,14.60
2023-04-27T21:03:22.026Z,14.60
2023-04-27T21:05:49.425Z,14.60
2023-04-27T21:08:17.315Z,14.50
2023-04-27T21:10:44.622Z,14.50
2023-04-27T21:13:11.579Z,14.40
2023-04-27T21:15:38.927Z,14.40
2023-04-27T21:18:07.823Z,14.40
2023-04-27T21:20:36.505Z,14.40
2023-04-27T21:23:03.587Z,14.40
2023-04-27T21:25:30.551Z,14.40
2023-04-27T21:27:57.484Z,14.30
2023-04-27T21:30:24.848Z,14.30
2023-04-27T21:32:51.810Z,14.30
2023-04-27T21:35:18.869Z,14.20
2023-04-27T21:37:46.033Z,14.20
2023-04-27T21:40:13.192Z,14.20
2023-04-27T21:42:40.104Z,14.20
2023-04-27T21:45:07.772Z,14.20
2023-04-27T21:47:34.845Z,14.20
2023-04-27T21:50:01.824Z,14.10
2023-04-27T21:52:28.695Z,14.20
2023-04-27T21:54:56.225Z,14.10
2023-04-27T21:57:23.067Z,14.10
2023-04-27T21:59:49.977Z,14.10
2023-04-27T22:02:17.098Z,14.10
2023-04-27T22:04:44.546Z,14.10
2023-04-27T22:07:12.145Z,14.10
2023-04-27T22:09:39.090Z,14.10
2023-04-27T22:12:06.536Z,14.10
2023-04-27T22:14:33.683Z,14.00
2023-04-27T22:17:01.034Z,14.00
2023-04-27T22:19:28.750Z,14.00
2023-04-27T22:21:56.099Z,14.00
2023-04-27T22:24:23.224Z,14.00
2023-04-27T22:26:50.123Z,13.90
2023-04-27T22:29:17.240Z,13.90
2023-04-27T22:31:45.002Z,13.90
2023-04-27T22:34:15.347Z,13.90
2023-04-27T22:36:42.650Z,13.90
2023-04-27T22:39:09.631Z,13.90
2023-04-27T22:41:36.712Z,13.80
2023-04-27T22:44:03.810Z,13.80
2023-04-27T22:46:30.855Z,13.80
2023-04-27T22:48:58.672Z,13.80
2023-04-27T22:51:27.331Z,13.70
2023-04-27T22:53:54.890Z,13.70
2023-04-27T22:56:22.517Z,13.70
2023-04-27T22:58:49.740Z,13.70
2023-04-27T23:01:16.818Z,13.60
2023-04-27T23:03:44.019Z,13.60
2023-04-27T23:06:17.062Z,13.60
2023-04-27T23:08:47.118Z,13.60
2023-04-27T23:11:15.479Z,13.60
2023-04-27T23:13:42.637Z,13.60
2023-04-27T23:16:10.007Z,13.60
2023-04-27T23:18:37.239Z,13.60
2023-04-27T23:21:04.343Z,13.60
2023-04-27T23:23:31.316Z,13.50
2023-04-27T23:25:58.255Z,13.50
2023-04-27T23:28:25.250Z,13.40
2023-04-27T23:30:53.927Z,13.50
2023-04-27T23:33:21.710Z,13.40
2023-04-27T23:35:48.764Z,13.40
2023-04-27T23:38:15.858Z,13.30
2023-04-27T23:40:42.703Z,13.30
2023-04-27T23:43:09.635Z,13.30
2023-04-27T23:45:36.827Z,13.20
2023-04-27T23:48:03.964Z,13.20
2023-04-27T23:50:30.965Z,13.10
2023-04-27T23:52:57.957Z,13.10
2023-04-27T23:55:24.896Z,13.10
2023-04-27T23:57:54.926Z,13.10
